Airfield :







YOU CAN JOIN US ON...

 
LOGIN :

Register | Disclaimer

   EN    FR    IT 

 









Legend :    VFR   Marginal VFR   IFR   Intensive IFR   Very Intensive IFR
Visi :
Ceiling :
>= 8 km
>= 3000ft
5 to 8 km
1000 to 3000 ft
1500m to 5 km
500 to 1000 ft
800 to 1500m
200 to 500 ft
< 800m
< 200 ft
Symbols :   Thunderstorms  Fog  Heavy snow  Heavy precipitations  Wind > 20 kt






- Airport Elevation : 271 ft


KBAF - Barnes Municipal

CURRENT METAR :
  • 040153Z 36011KT 9SM FEW011 SCT017 OVC026 08/06 A2988 RMK AO2 RAB02E11 SLP121 P0000 T00780061

EXPIRED METARs :
  • 040133Z 36011KT 8SM FEW010 BKN015 OVC028 08/06 A2987 RMK AO2 RAB02E11 P0000 T00780061
  • 040053Z 01009KT 5SM BR OVC012 08/06 A2986 RMK AO2 RAE07 SLP116 P0000 T00780061
  • 032353Z 01011KT 6SM -RA BR BKN013 BKN019 OVC025 08/06 A2984 RMK AO2 RAE2259B17 SLP108 P0000 60002 T00830061 10106 20083 52035
  • 032338Z 01010KT 9SM -RA FEW011 BKN024 OVC031 08/06 A2983 RMK AO2 RAE2259B17 P0000 T00830061
  • 032253Z 01014G20KT 9SM -RA FEW019 OVC032 09/06 A2980 RMK AO2 RAB51 SLP096 P0000 T00890056

TAF KBAF
Valid from the 04 at 00:00 until the 05 at 00:00 UTC


032326Z 0400/0424 36014G20KT P6SM VCSH OVC021
FM040200 01012G20KT P6SM VCSH OVC017
FM040500 01010KT P6SM BKN017
FM041500 02006KT P6SM BKN017
FM042200 05005KT P6SM BKN025



MET'MAP, your aeronautical weather chart ! - Copyright ORBIFLY December 2007 - Disclaimer

ORBIFLY MET'MAP TEAM :

Programming & Development : Alexandra Zaïnal
Concept & original design : Baudouin d'Aumeries
Assistance for programming : Marc-Olivier Méhu
Technical & hardware support : Manuel Goepfert

Contact : metmap@orbifly.com




SOURCES & CREDITS :

   NOAA